Terminal Aerodrome Forecast
Issued by NWS

Home | Current Version | Previous Version | Text Only | Print | Product List | Glossary On
Versions: 1 2 3 4 5 6 7 8 9 10 11 12
000
FTUS42 TJSJ 251140
TAFJMZ
TAF
TJMZ 251140Z 2512/2612 10005KT P6SM SCT060
     FM251500 14011KT P6SM SCT040
     FM252200 08003KT P6SM FEW070
      AMD NOT SKED TIL 251600=

USA.gov is the U.S. government's official web portal to all federal, state and local government web resources and services.